Time;durP1;ratioP1;P1;durP2;ratioP2;P2;SDS_P1;SDS_P2;PMS_P1;PMS_P2;Temp;Humidity;BMP_temperature;BMP_pressure;BME280_temperature;BME280_humidity;BME280_pressure;Samples;Min_cycle;Max_cycle;Signal;HPM_P1;HPM_P2
2021/04/19 00:02:06;;;;;;;9.85;8.05;;;8.10;99.90;;;;;;5010314;28;20040;-89
2021/04/19 00:04:31;;;;;;;9.63;7.93;;;8.10;99.90;;;;;;5014957;28;20140;-89
2021/04/19 00:06:57;;;;;;;12.70;7.93;;;8.10;99.90;;;;;;5003485;28;20522;-88
2021/04/19 00:09:23;;;;;;;12.60;7.57;;;7.90;99.90;;;;;;5000044;28;20560;-88
2021/04/19 00:11:49;;;;;;;10.18;7.93;;;7.70;99.90;;;;;;5027482;28;20022;-88
2021/04/19 00:14:15;;;;;;;11.88;7.47;;;7.70;99.90;;;;;;5014492;28;20030;-89
2021/04/19 00:16:40;;;;;;;9.13;7.40;;;7.40;99.90;;;;;;5016561;28;20091;-88
2021/04/19 00:19:06;;;;;;;12.35;8.35;;;7.40;99.90;;;;;;5001998;28;20124;-88
2021/04/19 00:21:32;;;;;;;12.20;8.35;;;7.40;99.90;;;;;;5000847;28;20039;-88
2021/04/19 00:23:57;;;;;;;11.52;7.90;;;7.40;99.90;;;;;;5021978;28;20038;-88
2021/04/19 00:26:23;;;;;;;12.95;8.20;;;7.40;99.90;;;;;;4997074;28;20038;-88
2021/04/19 00:28:49;;;;;;;13.80;7.88;;;7.30;99.90;;;;;;5033764;28;20424;-89
2021/04/19 00:31:15;;;;;;;12.00;8.13;;;7.30;99.90;;;;;;5010321;28;20045;-89
2021/04/19 00:33:40;;;;;;;10.68;7.80;;;7.20;99.90;;;;;;5006209;28;20063;-88
2021/04/19 00:36:06;;;;;;;10.77;8.02;;;7.20;99.90;;;;;;5023768;28;20062;-88
2021/04/19 00:38:32;;;;;;;10.13;7.85;;;7.10;99.90;;;;;;5020802;28;20011;-88
2021/04/19 00:41:01;;;;;;;10.77;7.55;;;7.20;99.90;;;;;;5024279;28;20099;-87
2021/04/19 00:43:27;;;;;;;10.63;7.13;;;7.10;99.90;;;;;;5000971;28;20046;-88
2021/04/19 00:46:01;;;;;;;9.27;8.07;;;7.10;99.90;;;;;;5004340;28;20053;-88
2021/04/19 00:48:27;;;;;;;10.68;7.97;;;7.20;99.90;;;;;;5008222;28;20040;-89
2021/04/19 00:50:55;;;;;;;11.43;8.40;;;7.00;99.90;;;;;;5016754;28;20029;-89
2021/04/19 00:53:23;;;;;;;13.07;8.60;;;6.90;99.90;;;;;;5013206;28;20032;-88
2021/04/19 00:55:49;;;;;;;12.07;8.40;;;6.70;99.90;;;;;;5017708;28;20034;-89
2021/04/19 00:58:18;;;;;;;12.88;8.80;;;6.70;99.90;;;;;;4997766;28;20030;-88
2021/04/19 01:00:43;;;;;;;13.00;8.48;;;6.80;99.90;;;;;;5005899;28;20033;-89
2021/04/19 01:03:09;;;;;;;10.82;8.38;;;6.80;99.90;;;;;;5007976;28;20029;-88
2021/04/19 01:05:39;;;;;;;11.90;8.32;;;6.80;99.90;;;;;;5015022;28;20042;-88
2021/04/19 01:08:07;;;;;;;10.82;8.10;;;6.80;99.90;;;;;;5007275;28;20029;-88
2021/04/19 01:10:34;;;;;;;9.98;8.52;;;6.80;99.90;;;;;;5017782;28;20498;-88
2021/04/19 01:13:00;;;;;;;10.27;8.10;;;6.80;99.90;;;;;;5005607;28;20034;-88
2021/04/19 01:15:25;;;;;;;11.45;8.52;;;6.70;99.90;;;;;;5017860;28;20027;-88
2021/04/19 01:17:51;;;;;;;10.60;8.00;;;6.60;99.90;;;;;;5009499;28;20014;-89
2021/04/19 01:20:20;;;;;;;15.10;8.95;;;6.70;99.90;;;;;;5011523;28;20422;-89
2021/04/19 01:22:46;;;;;;;12.85;8.88;;;6.70;99.90;;;;;;5011131;28;20525;-88
2021/04/19 01:25:18;;;;;;;14.90;8.25;;;6.50;99.90;;;;;;5016299;28;20041;-88
2021/04/19 01:27:43;;;;;;;10.18;8.45;;;6.40;99.90;;;;;;5008315;28;20430;-89
2021/04/19 01:30:10;;;;;;;10.75;8.48;;;6.30;99.90;;;;;;5006036;28;20034;-88
2021/04/19 01:32:36;;;;;;;11.60;8.75;;;6.30;99.90;;;;;;5013233;28;20019;-89
2021/04/19 01:35:05;;;;;;;10.27;8.73;;;6.20;99.90;;;;;;5009204;28;20594;-89
2021/04/19 01:37:31;;;;;;;10.88;8.57;;;6.10;99.90;;;;;;5011384;28;20510;-87
2021/04/19 01:39:57;;;;;;;10.90;8.80;;;6.10;99.90;;;;;;5002212;28;20077;-88
2021/04/19 01:42:22;;;;;;;12.88;8.52;;;6.00;99.90;;;;;;4998910;28;20085;-89
2021/04/19 01:44:49;;;;;;;10.77;8.50;;;6.00;99.90;;;;;;5021918;28;20451;-89
2021/04/19 01:47:17;;;;;;;10.55;8.90;;;6.00;99.90;;;;;;5002517;28;20038;-89
2021/04/19 01:49:43;;;;;;;9.63;8.05;;;5.90;99.90;;;;;;4998555;28;20096;-89
2021/04/19 01:52:08;;;;;;;11.43;9.15;;;6.50;99.90;;;;;;5011730;28;20017;-89
2021/04/19 01:54:34;;;;;;;14.18;8.88;;;5.90;99.90;;;;;;5011391;28;20379;-89
2021/04/19 01:57:00;;;;;;;11.35;9.05;;;6.00;99.90;;;;;;5022177;28;20402;-89
2021/04/19 01:59:26;;;;;;;12.57;8.43;;;6.10;99.90;;;;;;4996811;28;20105;-89
2021/04/19 02:02:02;;;;;;;10.43;8.95;;;6.10;99.90;;;;;;5015206;28;20014;-88
2021/04/19 02:04:49;;;;;;;11.25;9.15;;;6.10;99.90;;;;;;5009198;28;20042;-89
2021/04/19 02:07:53;;;;;;;13.52;8.98;;;5.90;99.90;;;;;;5009870;28;20022;-89
2021/04/19 02:10:22;;;;;;;11.57;9.15;;;5.90;99.90;;;;;;5000455;28;20051;-89
2021/04/19 02:12:59;;;;;;;12.70;9.30;;;5.90;99.90;;;;;;5010081;28;20040;-88
2021/04/19 02:15:35;;;;;;;12.40;9.02;;;5.80;99.90;;;;;;5007093;28;20088;-88
2021/04/19 02:18:21;;;;;;;10.73;8.50;;;5.90;99.90;;;;;;5012276;28;20113;-88
2021/04/19 02:21:06;;;;;;;10.13;8.43;;;5.80;99.90;;;;;;4994681;28;20129;-89
2021/04/19 02:23:46;;;;;;;11.27;8.88;;;5.70;99.90;;;;;;4994350;28;20048;-89
2021/04/19 02:26:28;;;;;;;15.18;8.48;;;5.70;99.90;;;;;;4993296;28;20501;-88
2021/04/19 02:29:31;;;;;;;11.18;9.15;;;5.80;99.90;;;;;;5018952;28;20492;-89
2021/04/19 02:32:03;;;;;;;10.05;8.48;;;5.90;99.90;;;;;;5003480;28;20121;-89
2021/04/19 02:34:32;;;;;;;11.40;8.73;;;5.70;99.90;;;;;;4994876;28;20031;-89
2021/04/19 02:36:59;;;;;;;12.25;9.02;;;5.60;99.90;;;;;;5002040;28;20482;-88
2021/04/19 02:39:27;;;;;;;12.98;9.70;;;5.50;99.90;;;;;;5005576;28;20528;-89
2021/04/19 02:41:54;;;;;;;11.27;8.93;;;5.30;99.90;;;;;;4995809;28;20024;-89
2021/04/19 02:44:21;;;;;;;10.35;8.48;;;5.30;99.90;;;;;;5020292;28;20038;-89
2021/04/19 02:46:51;;;;;;;11.40;8.82;;;5.30;99.90;;;;;;4999004;28;20046;-88
2021/04/19 02:49:19;;;;;;;12.75;9.40;;;5.30;99.90;;;;;;5002120;28;20034;-88
2021/04/19 02:51:45;;;;;;;11.20;8.77;;;5.40;99.90;;;;;;4998816;28;20026;-87
2021/04/19 02:54:12;;;;;;;12.23;8.75;;;5.50;99.90;;;;;;5016705;28;20084;-88
2021/04/19 02:56:39;;;;;;;11.75;8.85;;;5.50;99.90;;;;;;5008635;28;20113;-89
2021/04/19 02:59:09;;;;;;;9.60;8.60;;;5.40;99.90;;;;;;5014552;28;20039;-88
2021/04/19 03:01:39;;;;;;;14.25;9.60;;;5.30;99.90;;;;;;4995602;28;20554;-88
2021/04/19 03:04:15;;;;;;;12.25;9.52;;;5.30;99.90;;;;;;5007200;28;20037;-88
2021/04/19 03:06:44;;;;;;;11.90;9.10;;;5.40;99.90;;;;;;5005485;28;20021;-89
2021/04/19 03:09:12;;;;;;;12.30;9.35;;;5.10;99.90;;;;;;5017177;28;20117;-90
2021/04/19 03:11:42;;;;;;;12.57;9.95;;;5.10;99.90;;;;;;5009231;28;20064;-89
2021/04/19 03:14:11;;;;;;;14.13;10.05;;;5.00;99.90;;;;;;5008637;28;20092;-88
2021/04/19 03:16:43;;;;;;;12.05;9.50;;;4.90;99.90;;;;;;5008353;28;20142;-87
2021/04/19 03:19:11;;;;;;;13.70;9.82;;;4.90;99.90;;;;;;4999641;28;20076;-88
2021/04/19 03:21:41;;;;;;;11.85;9.52;;;4.90;99.90;;;;;;4998085;28;20052;-88
2021/04/19 03:24:09;;;;;;;13.88;9.77;;;4.90;99.90;;;;;;5016166;28;20041;-88
2021/04/19 03:26:36;;;;;;;12.73;9.30;;;5.00;99.90;;;;;;4993746;28;20033;-88
2021/04/19 03:29:03;;;;;;;13.10;10.10;;;4.90;99.90;;;;;;5011874;28;20037;-88
2021/04/19 03:31:46;;;;;;;12.00;9.18;;;4.80;99.90;;;;;;5007440;28;20026;-87
2021/04/19 03:34:17;;;;;;;12.98;9.27;;;4.90;99.90;;;;;;5008414;28;21242;-87
2021/04/19 03:36:47;;;;;;;14.82;10.13;;;4.80;99.90;;;;;;5004448;28;20059;-88
2021/04/19 03:39:14;;;;;;;13.90;9.82;;;4.90;99.90;;;;;;5022714;28;20058;-88
2021/04/19 03:41:46;;;;;;;12.45;9.80;;;4.80;99.90;;;;;;4997247;28;20022;-88
2021/04/19 03:44:15;;;;;;;12.80;9.55;;;4.80;99.90;;;;;;5018042;28;20034;-88
2021/04/19 03:46:41;;;;;;;13.10;9.65;;;4.80;99.90;;;;;;5009171;28;20497;-88
2021/04/19 03:49:13;;;;;;;13.20;9.85;;;4.80;99.90;;;;;;5010021;28;20481;-88
2021/04/19 03:51:40;;;;;;;11.70;9.50;;;4.90;99.90;;;;;;5006965;28;20037;-87
2021/04/19 03:54:07;;;;;;;11.13;9.82;;;4.80;99.90;;;;;;5015569;28;20875;-88
2021/04/19 03:56:34;;;;;;;13.25;9.60;;;4.80;99.90;;;;;;5013300;28;20069;-88
2021/04/19 03:59:08;;;;;;;13.35;10.52;;;4.70;99.90;;;;;;4999544;28;20081;-88
2021/04/19 04:01:36;;;;;;;12.75;10.27;;;4.80;99.90;;;;;;5011291;28;20072;-88
2021/04/19 04:04:02;;;;;;;11.05;9.48;;;4.70;99.90;;;;;;5002524;28;20042;-88
2021/04/19 04:06:29;;;;;;;14.00;9.75;;;4.60;99.90;;;;;;4996602;28;20490;-87
2021/04/19 04:08:56;;;;;;;15.10;9.43;;;4.50;99.90;;;;;;4998903;28;20025;-88
2021/04/19 04:11:22;;;;;;;12.77;9.50;;;4.50;99.90;;;;;;5012369;28;20030;-89
2021/04/19 04:13:48;;;;;;;13.82;10.10;;;4.60;99.90;;;;;;5023886;28;20099;-89
2021/04/19 04:16:13;;;;;;;14.32;10.50;;;4.70;99.90;;;;;;5014824;28;20025;-88
2021/04/19 04:18:39;;;;;;;13.32;10.15;;;4.70;99.90;;;;;;5014289;28;20040;-88
2021/04/19 04:21:05;;;;;;;13.13;9.98;;;4.60;99.90;;;;;;5011087;28;20065;-88
2021/04/19 04:23:31;;;;;;;16.05;10.38;;;4.50;99.90;;;;;;5020392;28;20496;-89
2021/04/19 04:25:57;;;;;;;14.40;11.05;;;4.40;99.90;;;;;;5010890;28;20493;-89
2021/04/19 04:28:23;;;;;;;15.63;11.38;;;4.40;99.90;;;;;;5007809;28;20394;-89
2021/04/19 04:30:49;;;;;;;16.60;11.13;;;4.30;99.90;;;;;;5009061;28;20038;-89
2021/04/19 04:33:14;;;;;;;14.02;10.70;;;4.20;99.90;;;;;;5005806;28;20021;-89
2021/04/19 04:35:40;;;;;;;16.08;10.93;;;4.30;99.90;;;;;;4999363;28;20025;-89
2021/04/19 04:38:06;;;;;;;16.50;11.55;;;4.20;99.90;;;;;;5011464;28;20047;-88
2021/04/19 04:40:32;;;;;;;15.50;10.20;;;4.40;99.90;;;;;;5000274;28;20446;-89
2021/04/19 04:43:13;;;;;;;16.48;11.48;;;4.30;99.90;;;;;;5004047;28;20065;-89
2021/04/19 04:45:40;;;;;;;18.05;11.38;;;4.30;99.90;;;;;;5008407;28;20063;-88
2021/04/19 04:48:20;;;;;;;19.05;12.52;;;4.20;99.90;;;;;;5009691;28;20509;-88
2021/04/19 04:50:51;;;;;;;18.05;12.15;;;4.20;99.90;;;;;;4996463;28;20038;-89
2021/04/19 04:53:25;;;;;;;22.70;13.27;;;4.20;99.90;;;;;;5000473;28;20035;-89
2021/04/19 04:55:53;;;;;;;18.02;11.70;;;4.20;99.90;;;;;;4995117;28;20034;-89
2021/04/19 04:58:20;;;;;;;16.85;12.13;;;4.10;99.90;;;;;;5013173;28;20032;-89
2021/04/19 05:00:46;;;;;;;17.90;12.10;;;4.10;99.90;;;;;;5014507;28;20040;-89
2021/04/19 05:03:14;;;;;;;19.67;12.55;;;4.10;99.90;;;;;;5009874;28;20478;-89
2021/04/19 05:05:41;;;;;;;18.00;12.25;;;4.10;99.90;;;;;;4995580;28;20112;-88
2021/04/19 05:08:10;;;;;;;17.23;11.50;;;4.20;99.90;;;;;;5021883;28;20033;-88
2021/04/19 05:10:37;;;;;;;12.63;10.65;;;4.20;99.90;;;;;;5008495;28;20038;-88
2021/04/19 05:13:18;;;;;;;16.27;10.93;;;4.30;99.90;;;;;;5000318;28;20467;-88
2021/04/19 05:15:45;;;;;;;15.98;12.75;;;4.50;99.90;;;;;;4997262;28;20027;-88
2021/04/19 05:18:15;;;;;;;16.85;12.38;;;4.40;99.90;;;;;;5006423;28;20568;-88
2021/04/19 05:20:41;;;;;;;20.02;14.10;;;5.00;99.90;;;;;;5009140;28;20038;-89
2021/04/19 05:23:08;;;;;;;15.50;11.80;;;4.50;99.90;;;;;;5022456;28;20434;-88
2021/04/19 05:25:34;;;;;;;15.35;11.73;;;4.80;99.90;;;;;;5009288;28;20034;-89
2021/04/19 05:28:00;;;;;;;19.85;11.05;;;4.50;99.90;;;;;;5007231;28;20026;-88
2021/04/19 05:30:28;;;;;;;14.77;11.57;;;4.50;99.90;;;;;;5017420;28;20029;-88
2021/04/19 05:32:54;;;;;;;13.88;10.90;;;4.50;99.90;;;;;;5009098;28;20394;-88
2021/04/19 05:35:21;;;;;;;17.33;11.93;;;4.60;99.90;;;;;;5009988;28;20017;-88
2021/04/19 05:37:49;;;;;;;15.02;11.13;;;4.60;99.90;;;;;;5012955;28;20042;-88
2021/04/19 05:40:19;;;;;;;17.02;11.15;;;4.60;99.90;;;;;;5021823;28;20075;-88
2021/04/19 05:42:46;;;;;;;19.17;11.32;;;4.70;99.90;;;;;;5016999;28;20034;-89
2021/04/19 05:45:15;;;;;;;13.85;11.07;;;4.70;99.90;;;;;;5040664;28;20125;-86
2021/04/19 05:47:43;;;;;;;16.17;11.02;;;4.80;99.90;;;;;;4998176;28;20025;-89
2021/04/19 05:50:10;;;;;;;17.63;12.07;;;4.80;99.90;;;;;;5013477;28;20073;-89
2021/04/19 05:52:36;;;;;;;14.43;12.02;;;4.90;99.90;;;;;;5004289;28;20121;-88
2021/04/19 05:55:02;;;;;;;16.73;12.07;;;4.80;99.90;;;;;;5011700;28;20038;-89
2021/04/19 05:57:43;;;;;;;13.55;11.05;;;4.80;99.90;;;;;;5010998;28;20087;-89
2021/04/19 06:00:24;;;;;;;16.50;11.70;;;4.90;99.90;;;;;;5019770;28;20490;-89
2021/04/19 06:03:15;;;;;;;15.90;11.63;;;5.00;99.90;;;;;;4998368;28;20396;-89
2021/04/19 06:06:27;;;;;;;17.88;12.30;;;4.80;99.90;;;;;;5018500;28;20490;-90
2021/04/19 06:09:11;;;;;;;18.92;12.00;;;5.10;99.90;;;;;;4970740;28;20050;-88
2021/04/19 06:11:46;;;;;;;18.95;12.15;;;5.10;99.90;;;;;;4987702;28;20465;-89
2021/04/19 06:14:15;;;;;;;19.38;12.38;;;5.30;99.90;;;;;;4966567;28;20122;-88
2021/04/19 06:16:42;;;;;;;18.48;13.45;;;5.20;99.90;;;;;;4969318;28;20023;-88
2021/04/19 06:19:15;;;;;;;17.00;13.30;;;5.00;99.90;;;;;;4967738;28;20043;-88
2021/04/19 06:21:42;;;;;;;16.17;12.25;;;5.30;99.90;;;;;;4966138;28;20086;-86
2021/04/19 06:24:08;;;;;;;18.95;12.10;;;5.50;99.90;;;;;;4965109;28;20054;-88
2021/04/19 06:26:36;;;;;;;17.33;12.65;;;5.60;99.90;;;;;;4974296;28;20085;-89
2021/04/19 06:29:04;;;;;;;16.42;12.18;;;5.50;99.90;;;;;;4974804;28;20093;-89
2021/04/19 06:31:31;;;;;;;16.52;12.93;;;5.80;99.90;;;;;;4963786;28;20034;-88
2021/04/19 06:34:06;;;;;;;17.17;12.73;;;5.70;99.90;;;;;;4960855;28;20452;-89
2021/04/19 06:36:42;;;;;;;16.13;12.40;;;5.90;99.90;;;;;;4961749;28;20459;-88
2021/04/19 06:39:11;;;;;;;21.23;13.95;;;6.00;99.90;;;;;;4970030;28;20388;-89
2021/04/19 06:41:36;;;;;;;16.17;12.82;;;6.00;99.90;;;;;;4954667;28;20053;-90
2021/04/19 06:44:04;;;;;;;18.42;13.00;;;6.20;99.90;;;;;;4971208;28;20554;-90
2021/04/19 06:46:35;;;;;;;16.40;12.93;;;6.40;99.90;;;;;;4996377;28;20034;-87
2021/04/19 06:49:02;;;;;;;18.58;13.50;;;6.50;99.90;;;;;;5021226;28;20045;-93
2021/04/19 06:51:30;;;;;;;17.80;12.95;;;6.60;99.90;;;;;;5024579;28;20072;-92
2021/04/19 06:53:56;;;;;;;19.23;13.40;;;6.60;99.90;;;;;;5050040;28;20030;-93
2021/04/19 06:56:29;;;;;;;17.02;12.48;;;6.60;99.90;;;;;;5027384;28;20076;-90
2021/04/19 06:58:55;;;;;;;13.88;11.57;;;6.70;99.90;;;;;;5012071;28;20113;-90
2021/04/19 07:01:24;;;;;;;14.40;12.02;;;6.80;99.90;;;;;;5016915;28;20037;-90
2021/04/19 07:03:55;;;;;;;15.38;11.68;;;6.90;99.90;;;;;;5001658;28;20038;-91
2021/04/19 07:06:26;;;;;;;14.23;11.32;;;6.90;99.90;;;;;;4997121;28;20482;-89
2021/04/19 07:08:57;;;;;;;14.90;11.23;;;7.10;99.90;;;;;;5010395;28;20022;-89
2021/04/19 07:11:25;;;;;;;14.90;11.02;;;7.10;99.90;;;;;;4998125;28;20101;-90
2021/04/19 07:13:52;;;;;;;15.07;10.38;;;7.20;99.90;;;;;;5017175;28;20105;-88
2021/04/19 07:16:18;;;;;;;13.93;10.65;;;7.40;99.90;;;;;;5010861;28;20041;-87
2021/04/19 07:18:44;;;;;;;15.13;11.10;;;7.50;99.90;;;;;;5012842;28;20498;-88
2021/04/19 07:21:11;;;;;;;14.10;10.50;;;7.90;99.90;;;;;;5009415;28;20050;-86
2021/04/19 07:23:37;;;;;;;15.93;11.63;;;7.70;99.90;;;;;;5002900;28;20025;-86
2021/04/19 07:26:06;;;;;;;14.07;10.90;;;8.00;99.90;;;;;;4997843;28;20034;-94
2021/04/19 07:28:38;;;;;;;14.45;10.77;;;7.90;99.90;;;;;;5025316;28;20029;-92
2021/04/19 07:31:11;;;;;;;12.95;11.27;;;7.90;99.90;;;;;;5013718;28;20069;-90
2021/04/19 07:33:37;;;;;;;14.52;11.38;;;7.80;99.90;;;;;;5012969;28;20022;-88
2021/04/19 07:36:27;;;;;;;14.75;11.40;;;7.80;99.90;;;;;;5046444;28;20438;-91
2021/04/19 07:38:54;;;;;;;14.15;11.27;;;7.80;99.90;;;;;;5003046;28;20049;-91
2021/04/19 07:41:20;;;;;;;15.77;12.10;;;8.00;99.90;;;;;;5005627;28;20022;-87
2021/04/19 07:43:47;;;;;;;16.15;11.60;;;8.00;99.90;;;;;;5013444;28;20061;-90
2021/04/19 07:46:16;;;;;;;15.77;11.60;;;8.10;99.90;;;;;;5003726;28;20465;-88
2021/04/19 07:48:46;;;;;;;14.60;10.65;;;8.20;99.90;;;;;;5012907;28;20547;-93
2021/04/19 07:51:35;;;;;;;14.27;10.40;;;8.30;99.90;;;;;;5010090;28;20031;-93
2021/04/19 07:54:10;;;;;;;12.52;9.98;;;8.20;99.90;;;;;;4998942;28;20030;-90
2021/04/19 07:56:37;;;;;;;17.60;9.60;;;8.30;99.90;;;;;;4996827;28;20033;-87
2021/04/19 07:59:30;;;;;;;14.00;9.80;;;8.40;99.90;;;;;;5015030;28;20036;-82
2021/04/19 08:02:00;;;;;;;17.02;9.95;;;8.40;99.90;;;;;;4999243;28;20041;-83
2021/04/19 08:04:26;;;;;;;14.38;11.13;;;8.80;99.90;;;;;;5013064;28;20033;-83
2021/04/19 08:06:52;;;;;;;12.85;10.48;;;9.00;99.90;;;;;;5010468;28;20093;-86
2021/04/19 08:09:32;;;;;;;13.38;10.48;;;8.80;99.90;;;;;;5018305;28;20391;-87
2021/04/19 08:12:09;;;;;;;13.57;11.18;;;9.00;99.90;;;;;;5009947;28;20080;-88
2021/04/19 08:14:51;;;;;;;12.73;10.10;;;8.90;99.90;;;;;;5011749;28;20112;-87
2021/04/19 08:17:16;;;;;;;18.08;11.45;;;9.10;99.90;;;;;;4999547;28;20541;-84
2021/04/19 08:19:42;;;;;;;15.23;11.18;;;9.10;99.90;;;;;;5015094;28;20038;-84
2021/04/19 08:22:16;;;;;;;15.05;11.27;;;9.30;99.90;;;;;;5006636;28;20133;-83
2021/04/19 08:24:42;;;;;;;15.75;11.27;;;9.30;99.90;;;;;;5011249;28;20038;-83
2021/04/19 08:27:16;;;;;;;13.02;10.90;;;9.20;99.90;;;;;;5007853;28;20101;-85
2021/04/19 08:29:45;;;;;;;14.68;11.43;;;9.60;99.90;;;;;;5022496;28;20041;-83
2021/04/19 08:32:14;;;;;;;17.73;9.93;;;9.60;99.90;;;;;;5010628;28;20030;-83
2021/04/19 08:34:41;;;;;;;12.75;10.40;;;9.70;99.90;;;;;;5012805;28;20099;-83
2021/04/19 08:37:09;;;;;;;13.02;9.80;;;9.70;99.90;;;;;;5009466;28;20041;-81
2021/04/19 08:39:36;;;;;;;15.98;11.25;;;9.70;99.90;;;;;;5015118;28;20042;-81
2021/04/19 08:42:03;;;;;;;13.20;9.52;;;9.90;99.90;;;;;;5012892;28;20431;-80
2021/04/19 08:44:35;;;;;;;12.75;9.95;;;9.70;99.90;;;;;;5009798;28;20049;-81
2021/04/19 08:47:02;;;;;;;11.48;9.35;;;10.20;99.90;;;;;;5012712;28;20026;-81
2021/04/19 08:49:31;;;;;;;11.45;9.05;;;10.30;99.90;;;;;;5000640;28;20486;-84
2021/04/19 08:51:58;;;;;;;12.35;9.75;;;10.80;99.90;;;;;;5010465;28;20037;-81
2021/04/19 08:54:24;;;;;;;13.80;10.00;;;10.70;99.90;;;;;;5007784;28;20029;-82
2021/04/19 08:56:50;;;;;;;10.65;9.48;;;10.70;99.90;;;;;;4995865;28;20038;-82
2021/04/19 08:59:17;;;;;;;11.43;8.85;;;10.80;99.90;;;;;;4996856;28;20029;-82
2021/04/19 09:01:44;;;;;;;11.93;8.50;;;10.60;99.90;;;;;;4998425;28;20487;-82
2021/04/19 09:04:10;;;;;;;13.25;9.00;;;10.70;99.90;;;;;;4998043;28;20560;-82
2021/04/19 09:06:55;;;;;;;10.90;8.27;;;10.80;99.90;;;;;;5010102;28;20033;-82
2021/04/19 09:09:32;;;;;;;8.57;7.60;;;10.70;99.90;;;;;;5007094;28;20042;-82
2021/04/19 09:12:10;;;;;;;10.43;8.13;;;10.90;99.90;;;;;;5008619;28;20038;-82
2021/04/19 09:14:39;;;;;;;12.70;8.15;;;11.00;99.90;;;;;;4996134;28;20037;-82
2021/04/19 09:17:05;;;;;;;10.45;8.60;;;11.40;99.90;;;;;;5012565;28;20247;-82
2021/04/19 09:19:33;;;;;;;11.18;8.35;;;11.00;99.90;;;;;;5008753;28;20029;-81
2021/04/19 09:22:10;;;;;;;9.60;8.27;;;11.10;99.90;;;;;;5009565;28;20045;-82
2021/04/19 09:25:03;;;;;;;10.85;8.85;;;11.10;99.90;;;;;;5001896;28;20034;-82
2021/04/19 09:27:49;;;;;;;10.60;8.40;;;11.00;99.90;;;;;;5006169;28;20037;-81
2021/04/19 09:30:29;;;;;;;12.32;8.88;;;11.30;99.90;;;;;;4998291;28;20041;-82
2021/04/19 09:33:04;;;;;;;10.10;8.10;;;11.20;99.90;;;;;;5009448;28;20041;-83
2021/04/19 09:35:45;;;;;;;12.68;8.13;;;11.40;99.90;;;;;;5008995;28;20041;-83
2021/04/19 09:38:15;;;;;;;8.82;7.93;;;11.50;99.90;;;;;;5011063;28;20034;-82
2021/04/19 09:40:51;;;;;;;11.35;8.10;;;11.40;99.90;;;;;;5007292;28;20449;-82
2021/04/19 09:43:41;;;;;;;9.18;7.45;;;11.70;99.90;;;;;;5005987;28;20041;-81
2021/04/19 09:46:06;;;;;;;8.25;7.25;;;11.80;99.90;;;;;;5006694;28;20057;-82
2021/04/19 09:48:33;;;;;;;106.18;15.07;;;12.10;99.90;;;;;;5010541;28;20080;-83
2021/04/19 09:51:02;;;;;;;155.98;20.40;;;12.30;99.90;;;;;;5008740;28;20046;-81
2021/04/19 09:53:30;;;;;;;10.55;7.90;;;12.50;99.90;;;;;;5009700;28;20032;-82
2021/04/19 09:55:57;;;;;;;10.05;7.15;;;12.90;99.90;;;;;;4996649;28;20034;-82
2021/04/19 09:58:23;;;;;;;10.95;6.43;;;13.10;99.90;;;;;;5004875;28;20033;-85
2021/04/19 10:00:56;;;;;;;12.98;6.53;;;13.00;99.90;;;;;;5004721;28;20048;-83
2021/04/19 10:03:22;;;;;;;6.07;5.47;;;12.90;99.90;;;;;;5006228;28;20022;-83
2021/04/19 10:05:49;;;;;;;6.43;5.80;;;12.80;99.90;;;;;;5008895;28;20121;-83
2021/04/19 10:08:16;;;;;;;7.82;6.32;;;13.30;99.90;;;;;;5007273;28;20022;-81
2021/04/19 10:10:43;;;;;;;8.32;5.90;;;13.20;99.90;;;;;;5006587;28;20375;-81
2021/04/19 10:13:09;;;;;;;6.63;5.43;;;13.60;99.90;;;;;;5009099;28;20029;-82
2021/04/19 10:15:34;;;;;;;5.60;4.85;;;13.70;99.90;;;;;;5003245;28;20030;-82
2021/04/19 10:18:10;;;;;;;6.07;5.15;;;13.70;99.90;;;;;;5007166;28;20026;-81
2021/04/19 10:20:38;;;;;;;8.20;5.15;;;13.90;99.90;;;;;;4994273;28;20026;-83
2021/04/19 10:23:07;;;;;;;6.35;4.60;;;14.00;99.90;;;;;;5007876;28;20028;-83
2021/04/19 10:25:34;;;;;;;7.47;5.15;;;14.90;99.90;;;;;;5005400;28;20565;-83
2021/04/19 10:27:59;;;;;;;5.85;5.25;;;17.20;99.90;;;;;;5005392;28;20037;-83
2021/04/19 10:30:26;;;;;;;7.38;5.10;;;20.80;99.90;;;;;;5005428;28;20021;-83
2021/04/19 10:32:52;;;;;;;6.63;4.57;;;23.30;99.90;;;;;;5007733;28;20026;-83
2021/04/19 10:35:28;;;;;;;5.60;4.93;;;25.50;99.90;;;;;;4994875;28;20038;-82
2021/04/19 10:37:53;;;;;;;5.38;4.72;;;25.60;99.90;;;;;;4996130;28;20026;-83
2021/04/19 10:40:19;;;;;;;9.05;5.70;;;26.70;99.90;;;;;;4999428;28;20049;-93
2021/04/19 10:42:45;;;;;;;4.97;4.43;;;28.20;99.90;;;;;;5031006;28;20022;-92
2021/04/19 10:45:11;;;;;;;5.20;4.70;;;28.10;99.90;;;;;;5011755;28;20038;-92
2021/04/19 10:47:36;;;;;;;6.05;5.13;;;28.00;99.90;;;;;;4994668;28;20025;-91
2021/04/19 10:50:02;;;;;;;6.20;4.85;;;29.50;99.90;;;;;;4998883;28;20027;-92
2021/04/19 10:52:28;;;;;;;5.15;4.55;;;29.30;99.90;;;;;;5005834;28;20045;-90
2021/04/19 10:54:54;;;;;;;5.85;4.90;;;31.00;99.90;;;;;;5007332;28;20382;-82
2021/04/19 10:57:21;;;;;;;5.47;4.97;;;29.80;99.90;;;;;;5004854;28;20052;-91
2021/04/19 10:59:48;;;;;;;5.50;5.00;;;31.00;99.90;;;;;;5009722;28;20466;-92
2021/04/19 11:02:14;;;;;;;6.20;5.60;;;32.20;99.90;;;;;;4996592;28;20026;-93
2021/04/19 11:04:40;;;;;;;7.13;5.00;;;32.80;99.90;;;;;;4996657;28;20038;-90
2021/04/19 11:07:28;;;;;;;5.30;4.78;;;32.90;99.90;;;;;;5012567;28;20038;-90
2021/04/19 11:10:16;;;;;;;5.75;5.15;;;32.80;99.90;;;;;;4999899;28;20087;-84
2021/04/19 11:13:00;;;;;;;5.97;5.47;;;33.10;99.90;;;;;;5004475;28;20034;-85
2021/04/19 11:15:38;;;;;;;6.15;5.15;;;32.70;99.90;;;;;;5014759;28;20083;-84
2021/04/19 11:18:21;;;;;;;5.45;4.95;;;33.60;99.90;;;;;;4995993;28;20029;-84
2021/04/19 11:20:48;;;;;;;5.70;5.20;;;33.10;99.90;;;;;;4994132;28;20049;-82
2021/04/19 11:23:28;;;;;;;5.18;4.65;;;32.70;99.90;;;;;;5007804;28;20045;-85
2021/04/19 11:25:57;;;;;;;6.25;4.85;;;30.60;99.90;;;;;;5007259;28;20455;-84
2021/04/19 11:28:33;;;;;;;4.63;4.22;;;32.10;99.90;;;;;;5007714;28;20095;-84
2021/04/19 11:31:11;;;;;;;6.35;4.72;;;33.80;99.90;;;;;;5006829;28;20491;-85
2021/04/19 11:33:37;;;;;;;5.15;4.70;;;33.70;99.90;;;;;;4996747;28;20027;-85
2021/04/19 11:36:06;;;;;;;6.90;5.10;;;33.80;99.90;;;;;;4995215;28;20497;-84
2021/04/19 11:38:36;;;;;;;6.10;5.50;;;33.70;99.90;;;;;;5011307;28;20034;-87
2021/04/19 11:41:05;;;;;;;5.57;5.10;;;32.10;99.90;;;;;;4992650;28;20550;-85
2021/04/19 11:43:33;;;;;;;5.35;4.85;;;31.50;99.90;;;;;;5006171;28;20098;-85
2021/04/19 11:46:05;;;;;;;5.88;4.90;;;32.00;99.90;;;;;;5010278;28;20030;-88
2021/04/19 11:48:33;;;;;;;5.28;4.78;;;31.30;99.90;;;;;;5005797;28;20026;-86
2021/04/19 11:50:59;;;;;;;6.97;4.72;;;31.00;99.90;;;;;;5005763;28;20121;-84
2021/04/19 11:53:28;;;;;;;5.65;5.00;;;33.30;99.90;;;;;;5008798;28;20048;-85
2021/04/19 11:55:55;;;;;;;5.00;4.60;;;33.50;99.90;;;;;;5010606;28;20109;-85
2021/04/19 11:58:22;;;;;;;5.65;5.00;;;33.10;99.90;;;;;;5008186;28;20397;-84
2021/04/19 12:00:48;;;;;;;5.38;4.88;;;32.80;99.90;;;;;;5008432;28;20112;-84
2021/04/19 12:03:17;;;;;;;5.07;4.45;;;32.20;99.90;;;;;;5008827;28;20014;-83
2021/04/19 12:05:43;;;;;;;5.78;5.28;;;32.60;99.90;;;;;;5011143;28;20066;-81
2021/04/19 12:08:09;;;;;;;5.10;4.60;;;32.40;99.90;;;;;;5029915;28;20096;-83
2021/04/19 12:10:36;;;;;;;5.55;5.05;;;32.90;99.90;;;;;;5013863;28;20041;-83
2021/04/19 12:13:02;;;;;;;5.47;4.90;;;33.20;99.90;;;;;;5008208;28;20038;-83
2021/04/19 12:15:28;;;;;;;7.15;4.90;;;32.20;99.90;;;;;;5008710;28;20030;-84
2021/04/19 12:17:53;;;;;;;5.53;4.72;;;32.00;99.90;;;;;;4997659;28;20495;-83
2021/04/19 12:20:19;;;;;;;5.32;4.82;;;31.20;99.90;;;;;;4997169;28;20054;-83
2021/04/19 12:22:45;;;;;;;10.82;4.95;;;32.10;99.90;;;;;;5012175;28;20046;-83
2021/04/19 12:25:11;;;;;;;5.82;4.80;;;32.10;99.90;;;;;;5002601;28;20041;-83
2021/04/19 12:27:37;;;;;;;6.43;4.93;;;31.80;99.90;;;;;;4999787;28;20138;-82
2021/04/19 12:30:04;;;;;;;5.50;5.00;;;32.60;99.90;;;;;;4998735;28;20116;-84
2021/04/19 12:32:29;;;;;;;5.07;4.68;;;32.40;99.90;;;;;;4996894;28;20034;-83
2021/04/19 12:34:56;;;;;;;4.93;4.53;;;33.20;99.90;;;;;;4998441;28;20117;-83
2021/04/19 12:37:22;;;;;;;5.53;4.70;;;30.80;99.90;;;;;;5008586;28;20385;-83
2021/04/19 12:39:47;;;;;;;5.05;4.55;;;28.20;99.90;;;;;;5007593;28;20265;-84
2021/04/19 12:42:13;;;;;;;5.30;4.90;;;27.50;99.90;;;;;;5007691;28;20014;-83
2021/04/19 12:44:39;;;;;;;5.93;4.72;;;25.40;99.90;;;;;;5011905;28;20418;-84
2021/04/19 12:47:05;;;;;;;5.40;4.90;;;24.60;99.90;;;;;;5010157;28;20018;-83
2021/04/19 12:49:30;;;;;;;6.05;5.00;;;26.30;99.90;;;;;;4999943;28;20471;-83
2021/04/19 12:51:56;;;;;;;5.38;4.88;;;23.00;99.90;;;;;;5003493;28;20026;-83
2021/04/19 12:54:21;;;;;;;5.57;5.07;;;22.10;99.90;;;;;;5007494;28;20442;-83
2021/04/19 12:56:47;;;;;;;6.97;4.93;;;23.90;99.90;;;;;;5010627;28;20579;-84